sensor_id;sensor_type;location;lat;lon;timestamp;temperature;humidity
43673;DHT22;41723;49.326;8.430;2023-06-14T00:00:31;21.60;68.70
43673;DHT22;41723;49.326;8.430;2023-06-14T00:02:56;21.70;68.80
43673;DHT22;41723;49.326;8.430;2023-06-14T00:05:23;21.60;68.70
43673;DHT22;41723;49.326;8.430;2023-06-14T00:07:49;21.70;68.80
43673;DHT22;41723;49.326;8.430;2023-06-14T00:10:18;21.70;67.70
43673;DHT22;41723;49.326;8.430;2023-06-14T00:12:44;21.70;68.00
43673;DHT22;41723;49.326;8.430;2023-06-14T00:15:10;21.80;67.70
43673;DHT22;41723;49.326;8.430;2023-06-14T00:17:35;21.80;67.70
43673;DHT22;41723;49.326;8.430;2023-06-14T00:20:02;21.80;67.90
43673;DHT22;41723;49.326;8.430;2023-06-14T00:22:28;21.70;68.60
43673;DHT22;41723;49.326;8.430;2023-06-14T00:24:56;21.70;68.30
43673;DHT22;41723;49.326;8.430;2023-06-14T00:27:21;21.70;68.30
43673;DHT22;41723;49.326;8.430;2023-06-14T00:29:47;21.60;68.50
43673;DHT22;41723;49.326;8.430;2023-06-14T00:32:13;21.40;68.40
43673;DHT22;41723;49.326;8.430;2023-06-14T00:34:38;21.30;69.10
43673;DHT22;41723;49.326;8.430;2023-06-14T00:37:04;21.40;69.10
43673;DHT22;41723;49.326;8.430;2023-06-14T00:39:30;21.40;69.30
43673;DHT22;41723;49.326;8.430;2023-06-14T00:41:55;21.30;69.00
43673;DHT22;41723;49.326;8.430;2023-06-14T00:44:21;21.30;69.10
43673;DHT22;41723;49.326;8.430;2023-06-14T00:46:47;21.20;69.50
43673;DHT22;41723;49.326;8.430;2023-06-14T00:49:14;21.10;70.20
43673;DHT22;41723;49.326;8.430;2023-06-14T00:51:43;20.80;71.40
43673;DHT22;41723;49.326;8.430;2023-06-14T00:54:09;20.70;71.90
43673;DHT22;41723;49.326;8.430;2023-06-14T00:56:36;20.50;72.40
43673;DHT22;41723;49.326;8.430;2023-06-14T00:59:02;20.40;72.60
43673;DHT22;41723;49.326;8.430;2023-06-14T01:01:28;20.10;73.10
43673;DHT22;41723;49.326;8.430;2023-06-14T01:03:54;19.90;73.90
43673;DHT22;41723;49.326;8.430;2023-06-14T01:06:28;19.80;74.30
43673;DHT22;41723;49.326;8.430;2023-06-14T01:09:17;19.80;74.30
43673;DHT22;41723;49.326;8.430;2023-06-14T01:12:07;19.70;74.90
43673;DHT22;41723;49.326;8.430;2023-06-14T01:14:30;19.40;75.20
43673;DHT22;41723;49.326;8.430;2023-06-14T01:16:57;19.30;75.70
43673;DHT22;41723;49.326;8.430;2023-06-14T01:19:25;19.20;76.00
43673;DHT22;41723;49.326;8.430;2023-06-14T01:21:51;19.10;76.70
43673;DHT22;41723;49.326;8.430;2023-06-14T01:24:18;19.00;77.00
43673;DHT22;41723;49.326;8.430;2023-06-14T01:26:52;19.10;77.00
43673;DHT22;41723;49.326;8.430;2023-06-14T01:29:24;19.00;77.20
43673;DHT22;41723;49.326;8.430;2023-06-14T01:31:51;18.90;77.60
43673;DHT22;41723;49.326;8.430;2023-06-14T01:34:18;19.00;77.60
43673;DHT22;41723;49.326;8.430;2023-06-14T01:36:44;18.90;77.70
43673;DHT22;41723;49.326;8.430;2023-06-14T01:39:11;18.90;78.00
43673;DHT22;41723;49.326;8.430;2023-06-14T01:41:54;18.80;78.00
43673;DHT22;41723;49.326;8.430;2023-06-14T01:44:20;18.80;78.00
43673;DHT22;41723;49.326;8.430;2023-06-14T01:46:46;18.80;78.20
43673;DHT22;41723;49.326;8.430;2023-06-14T01:49:11;18.80;78.20
43673;DHT22;41723;49.326;8.430;2023-06-14T01:51:37;18.70;78.10
43673;DHT22;41723;49.326;8.430;2023-06-14T01:54:03;18.70;78.20
43673;DHT22;41723;49.326;8.430;2023-06-14T01:56:30;18.70;78.60
43673;DHT22;41723;49.326;8.430;2023-06-14T01:58:56;18.70;78.60
43673;DHT22;41723;49.326;8.430;2023-06-14T02:01:22;18.60;79.10
43673;DHT22;41723;49.326;8.430;2023-06-14T02:03:47;18.60;79.00
43673;DHT22;41723;49.326;8.430;2023-06-14T02:06:15;18.80;79.20
43673;DHT22;41723;49.326;8.430;2023-06-14T02:08:44;18.80;79.00
43673;DHT22;41723;49.326;8.430;2023-06-14T02:11:10;18.90;79.10
43673;DHT22;41723;49.326;8.430;2023-06-14T02:13:35;18.80;78.90
43673;DHT22;41723;49.326;8.430;2023-06-14T02:16:01;18.80;79.30
43673;DHT22;41723;49.326;8.430;2023-06-14T02:18:27;18.70;79.40
43673;DHT22;41723;49.326;8.430;2023-06-14T02:20:54;18.60;79.40
43673;DHT22;41723;49.326;8.430;2023-06-14T02:23:20;18.50;79.80
43673;DHT22;41723;49.326;8.430;2023-06-14T02:25:46;18.40;80.20
43673;DHT22;41723;49.326;8.430;2023-06-14T02:28:11;18.30;80.40
43673;DHT22;41723;49.326;8.430;2023-06-14T02:30:38;18.30;81.00
43673;DHT22;41723;49.326;8.430;2023-06-14T02:33:04;18.30;81.00
43673;DHT22;41723;49.326;8.430;2023-06-14T02:35:31;18.20;81.60
43673;DHT22;41723;49.326;8.430;2023-06-14T02:37:57;18.30;81.40
43673;DHT22;41723;49.326;8.430;2023-06-14T02:40:22;18.30;81.60
43673;DHT22;41723;49.326;8.430;2023-06-14T02:42:49;18.30;81.90
43673;DHT22;41723;49.326;8.430;2023-06-14T02:45:16;18.30;81.70
43673;DHT22;41723;49.326;8.430;2023-06-14T02:47:42;18.30;81.60
43673;DHT22;41723;49.326;8.430;2023-06-14T02:50:08;18.30;81.80
43673;DHT22;41723;49.326;8.430;2023-06-14T02:52:33;18.30;82.10
43673;DHT22;41723;49.326;8.430;2023-06-14T02:54:59;18.40;81.80
43673;DHT22;41723;49.326;8.430;2023-06-14T02:57:25;18.40;81.70
43673;DHT22;41723;49.326;8.430;2023-06-14T02:59:51;18.30;82.10
43673;DHT22;41723;49.326;8.430;2023-06-14T03:02:18;18.30;82.30
43673;DHT22;41723;49.326;8.430;2023-06-14T03:04:44;18.30;82.30
43673;DHT22;41723;49.326;8.430;2023-06-14T03:07:14;18.40;82.00
43673;DHT22;41723;49.326;8.430;2023-06-14T03:09:45;18.40;82.00
43673;DHT22;41723;49.326;8.430;2023-06-14T03:12:12;18.30;82.10
43673;DHT22;41723;49.326;8.430;2023-06-14T03:14:38;18.20;82.30
43673;DHT22;41723;49.326;8.430;2023-06-14T03:17:06;18.20;82.70
43673;DHT22;41723;49.326;8.430;2023-06-14T03:19:34;18.10;82.80
43673;DHT22;41723;49.326;8.430;2023-06-14T03:21:59;18.10;82.90
43673;DHT22;41723;49.326;8.430;2023-06-14T03:24:27;17.80;83.60
43673;DHT22;41723;49.326;8.430;2023-06-14T03:26:54;17.80;84.30
43673;DHT22;41723;49.326;8.430;2023-06-14T03:29:21;17.70;84.50
43673;DHT22;41723;49.326;8.430;2023-06-14T03:32:01;17.60;84.60
43673;DHT22;41723;49.326;8.430;2023-06-14T03:34:34;17.60;85.00
43673;DHT22;41723;49.326;8.430;2023-06-14T03:37:01;17.60;85.00
43673;DHT22;41723;49.326;8.430;2023-06-14T03:39:27;17.60;85.40
43673;DHT22;41723;49.326;8.430;2023-06-14T03:41:54;17.60;85.40
43673;DHT22;41723;49.326;8.430;2023-06-14T03:44:19;17.70;85.80
43673;DHT22;41723;49.326;8.430;2023-06-14T03:46:45;17.70;85.70
43673;DHT22;41723;49.326;8.430;2023-06-14T03:49:12;17.70;85.50
43673;DHT22;41723;49.326;8.430;2023-06-14T03:51:38;17.60;86.10
43673;DHT22;41723;49.326;8.430;2023-06-14T03:54:03;17.50;86.40
43673;DHT22;41723;49.326;8.430;2023-06-14T03:56:29;17.50;86.60
43673;DHT22;41723;49.326;8.430;2023-06-14T03:58:55;17.60;86.80
43673;DHT22;41723;49.326;8.430;2023-06-14T04:01:23;17.50;86.50
43673;DHT22;41723;49.326;8.430;2023-06-14T04:03:57;17.50;87.10
43673;DHT22;41723;49.326;8.430;2023-06-14T04:06:24;17.60;87.30
43673;DHT22;41723;49.326;8.430;2023-06-14T04:08:51;17.70;87.00
43673;DHT22;41723;49.326;8.430;2023-06-14T04:11:17;17.60;87.00
43673;DHT22;41723;49.326;8.430;2023-06-14T04:13:42;17.60;87.20
43673;DHT22;41723;49.326;8.430;2023-06-14T04:16:09;17.50;87.60
43673;DHT22;41723;49.326;8.430;2023-06-14T04:18:35;17.30;87.90
43673;DHT22;41723;49.326;8.430;2023-06-14T04:21:01;17.30;88.50
43673;DHT22;41723;49.326;8.430;2023-06-14T04:23:28;17.30;88.60
43673;DHT22;41723;49.326;8.430;2023-06-14T04:25:54;17.30;88.90
43673;DHT22;41723;49.326;8.430;2023-06-14T04:28:21;17.50;88.60
43673;DHT22;41723;49.326;8.430;2023-06-14T04:30:53;17.60;87.90
43673;DHT22;41723;49.326;8.430;2023-06-14T04:33:19;17.70;87.90
43673;DHT22;41723;49.326;8.430;2023-06-14T04:35:45;17.50;88.40
43673;DHT22;41723;49.326;8.430;2023-06-14T04:38:13;17.50;89.00
43673;DHT22;41723;49.326;8.430;2023-06-14T04:40:41;17.70;88.70
43673;DHT22;41723;49.326;8.430;2023-06-14T04:43:14;17.70;88.40
43673;DHT22;41723;49.326;8.430;2023-06-14T04:45:42;17.60;89.00
43673;DHT22;41723;49.326;8.430;2023-06-14T04:48:10;17.90;88.50
43673;DHT22;41723;49.326;8.430;2023-06-14T04:50:37;17.90;88.50
43673;DHT22;41723;49.326;8.430;2023-06-14T04:53:03;17.90;88.50
43673;DHT22;41723;49.326;8.430;2023-06-14T04:55:29;17.80;88.70
43673;DHT22;41723;49.326;8.430;2023-06-14T04:57:55;17.80;89.50
43673;DHT22;41723;49.326;8.430;2023-06-14T05:00:20;17.90;89.20
43673;DHT22;41723;49.326;8.430;2023-06-14T05:02:46;17.90;90.00
43673;DHT22;41723;49.326;8.430;2023-06-14T05:05:12;18.00;89.30
43673;DHT22;41723;49.326;8.430;2023-06-14T05:07:38;18.10;89.00
43673;DHT22;41723;49.326;8.430;2023-06-14T05:10:04;18.20;89.10
43673;DHT22;41723;49.326;8.430;2023-06-14T05:12:30;18.40;88.90
43673;DHT22;41723;49.326;8.430;2023-06-14T05:14:57;18.50;88.10
43673;DHT22;41723;49.326;8.430;2023-06-14T05:17:24;18.40;88.20
43673;DHT22;41723;49.326;8.430;2023-06-14T05:19:49;18.30;89.30
43673;DHT22;41723;49.326;8.430;2023-06-14T05:22:16;18.40;88.50
43673;DHT22;41723;49.326;8.430;2023-06-14T05:24:41;18.40;88.70
43673;DHT22;41723;49.326;8.430;2023-06-14T05:27:07;18.30;88.60
43673;DHT22;41723;49.326;8.430;2023-06-14T05:29:33;18.40;88.60
43673;DHT22;41723;49.326;8.430;2023-06-14T05:31:59;18.50;88.80
43673;DHT22;41723;49.326;8.430;2023-06-14T05:34:25;18.70;89.70
43673;DHT22;41723;49.326;8.430;2023-06-14T05:36:50;18.80;88.30
43673;DHT22;41723;49.326;8.430;2023-06-14T05:39:16;18.80;88.90
43673;DHT22;41723;49.326;8.430;2023-06-14T05:41:42;18.90;88.20
43673;DHT22;41723;49.326;8.430;2023-06-14T05:44:08;19.10;87.90
43673;DHT22;41723;49.326;8.430;2023-06-14T05:46:33;19.10;87.90
43673;DHT22;41723;49.326;8.430;2023-06-14T05:48:59;19.20;87.70
43673;DHT22;41723;49.326;8.430;2023-06-14T05:51:25;19.20;86.80
43673;DHT22;41723;49.326;8.430;2023-06-14T05:53:50;19.30;87.50
43673;DHT22;41723;49.326;8.430;2023-06-14T05:56:16;19.40;87.00
43673;DHT22;41723;49.326;8.430;2023-06-14T05:58:45;19.50;86.60
43673;DHT22;41723;49.326;8.430;2023-06-14T06:01:11;19.40;86.80
43673;DHT22;41723;49.326;8.430;2023-06-14T06:03:38;19.50;86.70
43673;DHT22;41723;49.326;8.430;2023-06-14T06:06:04;19.70;86.50
43673;DHT22;41723;49.326;8.430;2023-06-14T06:08:30;19.90;86.40
43673;DHT22;41723;49.326;8.430;2023-06-14T06:10:56;20.00;85.90
43673;DHT22;41723;49.326;8.430;2023-06-14T06:13:22;20.20;88.60
43673;DHT22;41723;49.326;8.430;2023-06-14T06:15:48;20.40;89.30
43673;DHT22;41723;49.326;8.430;2023-06-14T06:18:13;20.60;86.00
43673;DHT22;41723;49.326;8.430;2023-06-14T06:20:39;20.70;86.40
43673;DHT22;41723;49.326;8.430;2023-06-14T06:23:05;20.90;85.40
43673;DHT22;41723;49.326;8.430;2023-06-14T06:25:30;20.90;85.60
43673;DHT22;41723;49.326;8.430;2023-06-14T06:27:57;20.90;83.50
43673;DHT22;41723;49.326;8.430;2023-06-14T06:30:22;20.90;85.30
43673;DHT22;41723;49.326;8.430;2023-06-14T06:32:48;20.90;85.80
43673;DHT22;41723;49.326;8.430;2023-06-14T06:35:14;20.80;84.70
43673;DHT22;41723;49.326;8.430;2023-06-14T06:37:40;21.20;93.00
43673;DHT22;41723;49.326;8.430;2023-06-14T06:40:06;21.30;87.10
43673;DHT22;41723;49.326;8.430;2023-06-14T06:42:32;21.40;86.90
43673;DHT22;41723;49.326;8.430;2023-06-14T06:45:02;21.50;84.50
43673;DHT22;41723;49.326;8.430;2023-06-14T06:47:27;21.50;82.70
43673;DHT22;41723;49.326;8.430;2023-06-14T06:49:53;21.30;83.50
43673;DHT22;41723;49.326;8.430;2023-06-14T06:52:18;21.40;83.30
43673;DHT22;41723;49.326;8.430;2023-06-14T06:54:44;21.40;83.40
43673;DHT22;41723;49.326;8.430;2023-06-14T06:57:09;21.40;82.40
43673;DHT22;41723;49.326;8.430;2023-06-14T06:59:36;21.20;83.10
43673;DHT22;41723;49.326;8.430;2023-06-14T07:02:02;21.10;83.90
43673;DHT22;41723;49.326;8.430;2023-06-14T07:04:27;21.20;82.80
43673;DHT22;41723;49.326;8.430;2023-06-14T07:06:53;21.20;83.00
43673;DHT22;41723;49.326;8.430;2023-06-14T07:09:18;21.20;84.00
43673;DHT22;41723;49.326;8.430;2023-06-14T07:11:45;21.30;82.80
43673;DHT22;41723;49.326;8.430;2023-06-14T07:14:11;21.30;82.40
43673;DHT22;41723;49.326;8.430;2023-06-14T07:16:37;21.40;82.10
43673;DHT22;41723;49.326;8.430;2023-06-14T07:19:02;21.30;81.40
43673;DHT22;41723;49.326;8.430;2023-06-14T07:21:28;21.40;81.30
43673;DHT22;41723;49.326;8.430;2023-06-14T07:23:54;21.50;81.10
43673;DHT22;41723;49.326;8.430;2023-06-14T07:26:20;21.60;82.00
43673;DHT22;41723;49.326;8.430;2023-06-14T07:28:46;21.70;82.10
43673;DHT22;41723;49.326;8.430;2023-06-14T07:31:12;21.80;80.90
43673;DHT22;41723;49.326;8.430;2023-06-14T07:33:38;21.80;80.00
43673;DHT22;41723;49.326;8.430;2023-06-14T07:36:03;21.70;81.70
43673;DHT22;41723;49.326;8.430;2023-06-14T07:38:29;21.70;79.70
43673;DHT22;41723;49.326;8.430;2023-06-14T07:40:54;21.80;79.30
43673;DHT22;41723;49.326;8.430;2023-06-14T07:43:20;21.90;80.00
43673;DHT22;41723;49.326;8.430;2023-06-14T07:45:46;22.00;78.70
43673;DHT22;41723;49.326;8.430;2023-06-14T07:48:11;21.70;79.10
43673;DHT22;41723;49.326;8.430;2023-06-14T07:50:37;21.70;79.90
43673;DHT22;41723;49.326;8.430;2023-06-14T07:53:02;21.90;79.40
43673;DHT22;41723;49.326;8.430;2023-06-14T07:55:28;22.10;79.70
43673;DHT22;41723;49.326;8.430;2023-06-14T07:57:54;22.20;79.20
43673;DHT22;41723;49.326;8.430;2023-06-14T08:00:20;22.30;79.00
43673;DHT22;41723;49.326;8.430;2023-06-14T08:02:46;22.40;78.80
43673;DHT22;41723;49.326;8.430;2023-06-14T08:05:11;22.40;78.20
43673;DHT22;41723;49.326;8.430;2023-06-14T08:07:37;22.50;79.00
43673;DHT22;41723;49.326;8.430;2023-06-14T08:10:04;22.50;78.60
43673;DHT22;41723;49.326;8.430;2023-06-14T08:12:29;22.60;78.30
43673;DHT22;41723;49.326;8.430;2023-06-14T08:14:55;22.60;77.00
43673;DHT22;41723;49.326;8.430;2023-06-14T08:17:20;22.60;78.40
43673;DHT22;41723;49.326;8.430;2023-06-14T08:19:46;22.70;77.80
43673;DHT22;41723;49.326;8.430;2023-06-14T08:22:12;22.70;77.60
43673;DHT22;41723;49.326;8.430;2023-06-14T08:24:38;22.70;77.60
43673;DHT22;41723;49.326;8.430;2023-06-14T08:27:05;22.60;76.50
43673;DHT22;41723;49.326;8.430;2023-06-14T08:29:31;22.70;77.00
43673;DHT22;41723;49.326;8.430;2023-06-14T08:31:56;22.70;77.00
43673;DHT22;41723;49.326;8.430;2023-06-14T08:34:24;22.80;76.10
43673;DHT22;41723;49.326;8.430;2023-06-14T08:36:50;22.70;75.80
43673;DHT22;41723;49.326;8.430;2023-06-14T08:39:16;22.70;76.50
43673;DHT22;41723;49.326;8.430;2023-06-14T08:41:42;22.70;76.50
43673;DHT22;41723;49.326;8.430;2023-06-14T08:44:08;22.50;75.10
43673;DHT22;41723;49.326;8.430;2023-06-14T08:46:34;22.70;76.60
43673;DHT22;41723;49.326;8.430;2023-06-14T08:49:01;22.60;75.40
43673;DHT22;41723;49.326;8.430;2023-06-14T08:51:27;22.40;75.70
43673;DHT22;41723;49.326;8.430;2023-06-14T08:53:59;22.60;76.20
43673;DHT22;41723;49.326;8.430;2023-06-14T08:56:27;22.80;77.10
43673;DHT22;41723;49.326;8.430;2023-06-14T08:58:58;22.90;77.00
43673;DHT22;41723;49.326;8.430;2023-06-14T09:01:33;23.10;79.10
43673;DHT22;41723;49.326;8.430;2023-06-14T09:03:59;23.20;76.70
43673;DHT22;41723;49.326;8.430;2023-06-14T09:06:25;23.30;75.70
43673;DHT22;41723;49.326;8.430;2023-06-14T09:08:50;23.20;74.60
43673;DHT22;41723;49.326;8.430;2023-06-14T09:11:17;23.30;75.70
43673;DHT22;41723;49.326;8.430;2023-06-14T09:13:44;23.40;75.00
43673;DHT22;41723;49.326;8.430;2023-06-14T09:16:10;23.50;75.10
43673;DHT22;41723;49.326;8.430;2023-06-14T09:18:36;23.60;75.70
43673;DHT22;41723;49.326;8.430;2023-06-14T09:21:02;23.70;73.40
43673;DHT22;41723;49.326;8.430;2023-06-14T09:23:28;23.70;74.00
43673;DHT22;41723;49.326;8.430;2023-06-14T09:25:53;23.80;73.30
43673;DHT22;41723;49.326;8.430;2023-06-14T09:28:19;24.00;73.10
43673;DHT22;41723;49.326;8.430;2023-06-14T09:30:47;23.80;72.00
43673;DHT22;41723;49.326;8.430;2023-06-14T09:33:16;23.80;72.00
43673;DHT22;41723;49.326;8.430;2023-06-14T09:35:44;23.80;70.40
43673;DHT22;41723;49.326;8.430;2023-06-14T09:38:10;23.80;69.50
43673;DHT22;41723;49.326;8.430;2023-06-14T09:40:36;23.70;68.60
43673;DHT22;41723;49.326;8.430;2023-06-14T09:43:04;23.80;68.50
43673;DHT22;41723;49.326;8.430;2023-06-14T09:45:31;23.90;68.40
43673;DHT22;41723;49.326;8.430;2023-06-14T09:47:57;23.80;69.00
43673;DHT22;41723;49.326;8.430;2023-06-14T09:50:23;23.90;68.80
43673;DHT22;41723;49.326;8.430;2023-06-14T09:52:49;24.00;69.00
43673;DHT22;41723;49.326;8.430;2023-06-14T09:55:16;23.90;68.90
43673;DHT22;41723;49.326;8.430;2023-06-14T09:57:42;23.70;68.00
43673;DHT22;41723;49.326;8.430;2023-06-14T10:00:11;23.60;68.60
43673;DHT22;41723;49.326;8.430;2023-06-14T10:02:38;23.80;68.70
43673;DHT22;41723;49.326;8.430;2023-06-14T10:05:05;23.90;68.60
43673;DHT22;41723;49.326;8.430;2023-06-14T10:07:32;24.00;68.20
43673;DHT22;41723;49.326;8.430;2023-06-14T10:09:59;23.90;67.20
43673;DHT22;41723;49.326;8.430;2023-06-14T10:12:25;24.00;68.10
43673;DHT22;41723;49.326;8.430;2023-06-14T10:14:51;23.90;67.60
43673;DHT22;41723;49.326;8.430;2023-06-14T10:17:43;24.00;67.50
43673;DHT22;41723;49.326;8.430;2023-06-14T10:20:17;24.20;68.20
43673;DHT22;41723;49.326;8.430;2023-06-14T10:22:51;24.20;67.30
43673;DHT22;41723;49.326;8.430;2023-06-14T10:25:28;24.20;66.40
43673;DHT22;41723;49.326;8.430;2023-06-14T10:30:38;24.30;67.30
43673;DHT22;41723;49.326;8.430;2023-06-14T10:33:07;24.20;65.80
43673;DHT22;41723;49.326;8.430;2023-06-14T10:35:33;24.10;66.10
43673;DHT22;41723;49.326;8.430;2023-06-14T10:38:06;24.10;66.10
43673;DHT22;41723;49.326;8.430;2023-06-14T10:40:31;24.20;66.80
43673;DHT22;41723;49.326;8.430;2023-06-14T10:42:58;24.40;67.00
43673;DHT22;41723;49.326;8.430;2023-06-14T10:45:24;24.40;65.90
43673;DHT22;41723;49.326;8.430;2023-06-14T10:47:49;24.30;66.30
43673;DHT22;41723;49.326;8.430;2023-06-14T10:50:17;24.30;66.20
43673;DHT22;41723;49.326;8.430;2023-06-14T10:52:48;24.60;66.50
43673;DHT22;41723;49.326;8.430;2023-06-14T10:55:14;24.60;66.30
43673;DHT22;41723;49.326;8.430;2023-06-14T11:00:06;24.20;66.10
43673;DHT22;41723;49.326;8.430;2023-06-14T11:05:14;24.60;66.30
43673;DHT22;41723;49.326;8.430;2023-06-14T11:12:53;24.90;66.80
43673;DHT22;41723;49.326;8.430;2023-06-14T11:15:20;25.00;65.40
43673;DHT22;41723;49.326;8.430;2023-06-14T11:17:52;25.10;66.40
43673;DHT22;41723;49.326;8.430;2023-06-14T11:20:24;25.30;65.30
43673;DHT22;41723;49.326;8.430;2023-06-14T11:22:50;25.20;65.10
43673;DHT22;41723;49.326;8.430;2023-06-14T11:25:15;25.30;65.20
43673;DHT22;41723;49.326;8.430;2023-06-14T11:27:41;25.40;65.70
43673;DHT22;41723;49.326;8.430;2023-06-14T11:30:07;25.60;64.80
43673;DHT22;41723;49.326;8.430;2023-06-14T11:32:33;25.80;65.20
43673;DHT22;41723;49.326;8.430;2023-06-14T11:34:59;25.60;64.60
43673;DHT22;41723;49.326;8.430;2023-06-14T11:37:25;25.50;64.40
43673;DHT22;41723;49.326;8.430;2023-06-14T11:39:57;25.50;63.60
43673;DHT22;41723;49.326;8.430;2023-06-14T11:42:24;25.20;63.40
43673;DHT22;41723;49.326;8.430;2023-06-14T11:44:49;25.40;63.80
43673;DHT22;41723;49.326;8.430;2023-06-14T11:47:15;25.40;63.50
43673;DHT22;41723;49.326;8.430;2023-06-14T11:49:41;25.60;64.50
43673;DHT22;41723;49.326;8.430;2023-06-14T11:52:07;25.50;63.50
43673;DHT22;41723;49.326;8.430;2023-06-14T11:54:33;25.60;63.90
43673;DHT22;41723;49.326;8.430;2023-06-14T11:56:58;25.80;64.70
43673;DHT22;41723;49.326;8.430;2023-06-14T11:59:24;25.70;64.90
43673;DHT22;41723;49.326;8.430;2023-06-14T12:01:52;25.90;64.50
43673;DHT22;41723;49.326;8.430;2023-06-14T12:04:28;25.70;65.00
43673;DHT22;41723;49.326;8.430;2023-06-14T12:06:54;25.80;64.60
43673;DHT22;41723;49.326;8.430;2023-06-14T12:09:21;25.80;64.90
43673;DHT22;41723;49.326;8.430;2023-06-14T12:11:49;25.50;64.60
43673;DHT22;41723;49.326;8.430;2023-06-14T12:14:15;25.60;64.40
43673;DHT22;41723;49.326;8.430;2023-06-14T12:16:42;25.60;64.80
43673;DHT22;41723;49.326;8.430;2023-06-14T12:19:08;25.80;64.80
43673;DHT22;41723;49.326;8.430;2023-06-14T12:21:36;26.20;64.40
43673;DHT22;41723;49.326;8.430;2023-06-14T12:24:04;26.10;64.90
43673;DHT22;41723;49.326;8.430;2023-06-14T12:26:32;26.30;65.10
43673;DHT22;41723;49.326;8.430;2023-06-14T12:28:57;26.20;65.60
43673;DHT22;41723;49.326;8.430;2023-06-14T12:31:23;26.10;63.80
43673;DHT22;41723;49.326;8.430;2023-06-14T12:33:49;25.50;64.00
43673;DHT22;41723;49.326;8.430;2023-06-14T12:36:15;25.20;64.00
43673;DHT22;41723;49.326;8.430;2023-06-14T12:38:42;25.20;64.80
43673;DHT22;41723;49.326;8.430;2023-06-14T12:41:07;25.30;64.40
43673;DHT22;41723;49.326;8.430;2023-06-14T12:43:33;25.70;65.00
43673;DHT22;41723;49.326;8.430;2023-06-14T12:45:59;25.80;64.00
43673;DHT22;41723;49.326;8.430;2023-06-14T12:48:25;25.90;65.00
43673;DHT22;41723;49.326;8.430;2023-06-14T12:50:52;25.80;63.80
43673;DHT22;41723;49.326;8.430;2023-06-14T12:53:18;25.80;64.10
43673;DHT22;41723;49.326;8.430;2023-06-14T12:55:44;25.80;64.10
43673;DHT22;41723;49.326;8.430;2023-06-14T12:58:09;26.00;64.00
43673;DHT22;41723;49.326;8.430;2023-06-14T13:00:37;26.10;64.90
43673;DHT22;41723;49.326;8.430;2023-06-14T13:03:03;26.10;65.40
43673;DHT22;41723;49.326;8.430;2023-06-14T13:05:29;26.10;64.50
43673;DHT22;41723;49.326;8.430;2023-06-14T13:07:56;26.10;63.10
43673;DHT22;41723;49.326;8.430;2023-06-14T13:10:22;26.00;64.80
43673;DHT22;41723;49.326;8.430;2023-06-14T13:12:47;26.00;63.90
43673;DHT22;41723;49.326;8.430;2023-06-14T13:15:14;26.20;63.20
43673;DHT22;41723;49.326;8.430;2023-06-14T13:17:40;26.40;64.00
43673;DHT22;41723;49.326;8.430;2023-06-14T13:20:06;26.60;64.90
43673;DHT22;41723;49.326;8.430;2023-06-14T13:22:32;26.60;64.20
43673;DHT22;41723;49.326;8.430;2023-06-14T13:24:58;26.40;63.60
43673;DHT22;41723;49.326;8.430;2023-06-14T13:27:23;25.90;64.40
43673;DHT22;41723;49.326;8.430;2023-06-14T13:29:50;25.40;64.40
43673;DHT22;41723;49.326;8.430;2023-06-14T13:32:15;25.20;65.20
43673;DHT22;41723;49.326;8.430;2023-06-14T13:34:41;25.40;65.20
43673;DHT22;41723;49.326;8.430;2023-06-14T13:37:06;25.80;64.60
43673;DHT22;41723;49.326;8.430;2023-06-14T13:39:32;26.00;65.20
43673;DHT22;41723;49.326;8.430;2023-06-14T13:41:58;26.20;64.50
43673;DHT22;41723;49.326;8.430;2023-06-14T13:44:23;26.40;63.60
43673;DHT22;41723;49.326;8.430;2023-06-14T13:46:50;26.40;63.70
43673;DHT22;41723;49.326;8.430;2023-06-14T13:49:16;26.00;64.10
43673;DHT22;41723;49.326;8.430;2023-06-14T13:51:42;25.80;64.30
43673;DHT22;41723;49.326;8.430;2023-06-14T13:54:07;25.80;64.90
43673;DHT22;41723;49.326;8.430;2023-06-14T13:56:33;25.70;64.50
43673;DHT22;41723;49.326;8.430;2023-06-14T13:58:58;25.90;64.00
43673;DHT22;41723;49.326;8.430;2023-06-14T14:01:25;26.00;64.60
43673;DHT22;41723;49.326;8.430;2023-06-14T14:03:52;26.00;63.90
43673;DHT22;41723;49.326;8.430;2023-06-14T14:06:17;25.80;64.00
43673;DHT22;41723;49.326;8.430;2023-06-14T14:08:43;25.60;63.40
43673;DHT22;41723;49.326;8.430;2023-06-14T14:11:09;25.60;63.70
43673;DHT22;41723;49.326;8.430;2023-06-14T14:13:35;25.60;64.50
43673;DHT22;41723;49.326;8.430;2023-06-14T14:16:05;25.50;63.60
43673;DHT22;41723;49.326;8.430;2023-06-14T14:18:31;25.70;63.80
43673;DHT22;41723;49.326;8.430;2023-06-14T14:20:58;25.80;63.70
43673;DHT22;41723;49.326;8.430;2023-06-14T14:23:23;25.90;63.20
43673;DHT22;41723;49.326;8.430;2023-06-14T14:25:49;25.80;63.00
43673;DHT22;41723;49.326;8.430;2023-06-14T14:28:15;25.80;64.00
43673;DHT22;41723;49.326;8.430;2023-06-14T14:30:46;25.90;64.00
43673;DHT22;41723;49.326;8.430;2023-06-14T14:33:15;26.00;65.00
43673;DHT22;41723;49.326;8.430;2023-06-14T14:35:42;25.90;64.70
43673;DHT22;41723;49.326;8.430;2023-06-14T14:38:08;25.90;65.00
43673;DHT22;41723;49.326;8.430;2023-06-14T14:40:34;25.90;64.10
43673;DHT22;41723;49.326;8.430;2023-06-14T14:43:00;25.90;65.40
43673;DHT22;41723;49.326;8.430;2023-06-14T14:45:25;25.90;64.10
43673;DHT22;41723;49.326;8.430;2023-06-14T14:47:51;26.00;64.40
43673;DHT22;41723;49.326;8.430;2023-06-14T14:50:17;26.00;64.00
43673;DHT22;41723;49.326;8.430;2023-06-14T14:52:42;26.00;64.30
43673;DHT22;41723;49.326;8.430;2023-06-14T14:55:08;26.20;65.50
43673;DHT22;41723;49.326;8.430;2023-06-14T14:57:33;26.20;63.90
43673;DHT22;41723;49.326;8.430;2023-06-14T15:00:02;25.90;64.00
43673;DHT22;41723;49.326;8.430;2023-06-14T15:02:28;26.00;64.80
43673;DHT22;41723;49.326;8.430;2023-06-14T15:04:53;26.20;64.00
43673;DHT22;41723;49.326;8.430;2023-06-14T15:07:19;26.30;64.60
43673;DHT22;41723;49.326;8.430;2023-06-14T15:09:45;26.40;64.90
43673;DHT22;41723;49.326;8.430;2023-06-14T15:12:11;26.30;64.90
43673;DHT22;41723;49.326;8.430;2023-06-14T15:14:36;26.30;65.30
43673;DHT22;41723;49.326;8.430;2023-06-14T15:17:02;26.10;63.80
43673;DHT22;41723;49.326;8.430;2023-06-14T15:19:28;25.90;64.00
43673;DHT22;41723;49.326;8.430;2023-06-14T15:21:53;25.80;63.40
43673;DHT22;41723;49.326;8.430;2023-06-14T15:24:19;25.70;65.00
43673;DHT22;41723;49.326;8.430;2023-06-14T15:26:45;25.80;63.60
43673;DHT22;41723;49.326;8.430;2023-06-14T15:29:10;25.80;63.70
43673;DHT22;41723;49.326;8.430;2023-06-14T15:31:36;25.50;64.00
43673;DHT22;41723;49.326;8.430;2023-06-14T15:34:01;25.60;63.60
43673;DHT22;41723;49.326;8.430;2023-06-14T15:36:28;25.50;64.50
43673;DHT22;41723;49.326;8.430;2023-06-14T15:38:53;25.80;65.10